createdAt,value
2019-04-16T00:00:11.882Z,99.90
2019-04-16T00:02:41.343Z,99.90
2019-04-16T00:05:10.288Z,99.90
2019-04-16T00:07:41.029Z,99.90
2019-04-16T00:13:12.825Z,99.90
2019-04-16T00:15:41.302Z,99.90
2019-04-16T00:18:07.227Z,99.90
2019-04-16T00:20:36.832Z,99.90
2019-04-16T00:23:02.487Z,99.90
2019-04-16T00:25:29.301Z,99.90
2019-04-16T00:27:59.586Z,99.90
2019-04-16T00:30:23.567Z,99.90
2019-04-16T00:32:51.235Z,99.90
2019-04-16T00:35:18.874Z,99.90
2019-04-16T00:37:45.568Z,99.90
2019-04-16T00:40:12.422Z,99.90
2019-04-16T00:42:40.604Z,99.90
2019-04-16T00:45:07.350Z,99.90
2019-04-16T00:47:34.119Z,99.90
2019-04-16T00:50:00.844Z,99.90
2019-04-16T00:52:28.344Z,99.90
2019-04-16T00:54:55.072Z,99.90
2019-04-16T00:57:21.759Z,99.90
2019-04-16T00:59:48.457Z,99.90
2019-04-16T01:02:15.151Z,99.90
2019-04-16T01:04:41.879Z,99.90
2019-04-16T01:07:08.625Z,99.90
2019-04-16T01:09:35.345Z,99.90
2019-04-16T01:12:02.046Z,99.90
2019-04-16T01:14:28.765Z,99.90
2019-04-16T01:16:56.222Z,99.90
2019-04-16T01:19:23.698Z,99.90
2019-04-16T01:21:51.149Z,99.90
2019-04-16T01:24:20.281Z,99.90
2019-04-16T01:26:45.459Z,99.90
2019-04-16T01:29:13.812Z,99.90
2019-04-16T01:31:46.236Z,99.90
2019-04-16T01:34:23.784Z,99.90
2019-04-16T01:36:57.360Z,99.90
2019-04-16T01:39:26.618Z,99.90
2019-04-16T01:41:53.402Z,99.90
2019-04-16T01:44:20.084Z,99.90
2019-04-16T01:46:47.579Z,99.90
2019-04-16T01:49:14.260Z,99.90
2019-04-16T01:51:44.707Z,99.90
2019-04-16T01:54:08.558Z,99.90
2019-04-16T01:56:35.992Z,99.90
2019-04-16T01:59:05.478Z,99.90
2019-04-16T02:01:30.319Z,99.90
2019-04-16T02:03:57.051Z,99.90
2019-04-16T02:06:26.051Z,99.90
2019-04-16T02:08:51.314Z,99.90
2019-04-16T02:11:18.079Z,99.90
2019-04-16T02:13:46.162Z,99.90
2019-04-16T02:16:12.487Z,99.90
2019-04-16T02:18:39.113Z,99.90
2019-04-16T02:21:09.561Z,99.90
2019-04-16T02:23:33.347Z,99.90
2019-04-16T02:26:00.817Z,99.90
2019-04-16T02:28:29.060Z,99.90
2019-04-16T02:30:55.974Z,99.90
2019-04-16T02:33:22.701Z,99.90
2019-04-16T02:35:49.411Z,99.90
2019-04-16T02:38:16.928Z,99.90
2019-04-16T02:40:47.423Z,99.90
2019-04-16T02:43:10.487Z,99.90
2019-04-16T02:45:37.214Z,99.90
2019-04-16T02:48:03.933Z,99.90
2019-04-16T02:53:34.608Z,99.90
2019-04-16T02:56:01.468Z,99.90
2019-04-16T02:58:34.016Z,99.90
2019-04-16T03:00:55.043Z,99.90
2019-04-16T03:03:27.745Z,99.90
2019-04-16T03:05:54.504Z,99.90
2019-04-16T03:08:22.038Z,99.90
2019-04-16T03:10:48.769Z,99.90
2019-04-16T03:13:15.663Z,99.90
2019-04-16T03:15:48.395Z,99.90
2019-04-16T03:18:16.179Z,99.90
2019-04-16T03:20:42.003Z,99.90
2019-04-16T03:23:09.509Z,99.90
2019-04-16T03:25:36.234Z,99.90
2019-04-16T03:28:03.702Z,99.90
2019-04-16T03:30:30.506Z,99.90
2019-04-16T03:32:57.989Z,99.90
2019-04-16T03:35:26.705Z,99.90
2019-04-16T03:37:52.568Z,99.90
2019-04-16T03:40:24.617Z,99.90
2019-04-16T03:42:46.903Z,99.90
2019-04-16T03:45:13.661Z,99.90
2019-04-16T03:47:40.399Z,99.90
2019-04-16T03:50:07.175Z,99.90
2019-04-16T03:52:33.885Z,99.90
2019-04-16T03:55:00.666Z,99.90
2019-04-16T03:57:27.392Z,99.90
2019-04-16T03:59:54.056Z,99.90
2019-04-16T04:02:22.803Z,99.90
2019-04-16T04:04:47.593Z,99.90
2019-04-16T04:07:14.377Z,99.90
2019-04-16T04:09:41.841Z,99.90
2019-04-16T04:12:09.656Z,99.90
2019-04-16T04:14:36.084Z,99.90
2019-04-16T04:17:06.565Z,99.90
2019-04-16T04:19:29.555Z,99.90
2019-04-16T04:21:56.384Z,99.90
2019-04-16T04:24:23.146Z,99.90
2019-04-16T10:20:17.914Z,51.60
2019-04-16T10:22:45.369Z,51.30
2019-04-16T10:25:13.129Z,51.30
2019-04-16T10:27:40.697Z,51.70
2019-04-16T10:30:08.398Z,51.10
2019-04-16T10:32:35.096Z,51.60
2019-04-16T10:35:02.862Z,52.80
2019-04-16T10:37:29.692Z,52.80
2019-04-16T10:39:57.519Z,51.90
2019-04-16T10:45:22.571Z,52.60
2019-04-16T10:48:02.236Z,53.10
2019-04-16T10:50:32.875Z,52.50
2019-04-16T10:53:02.452Z,52.40
2019-04-16T10:55:35.182Z,52.20
2019-04-16T11:00:57.136Z,51.80
2019-04-16T11:03:28.513Z,50.90
2019-04-16T11:06:02.598Z,52.30
2019-04-16T11:08:30.046Z,52.40
2019-04-16T11:10:57.464Z,52.50
2019-04-16T11:13:25.954Z,52.50
2019-04-16T11:15:52.738Z,52.20
2019-04-16T11:18:19.403Z,52.10
2019-04-16T11:20:46.908Z,52.30
2019-04-16T11:23:14.408Z,51.50
2019-04-16T11:25:41.101Z,51.50
2019-04-16T11:28:07.921Z,51.70
2019-04-16T11:30:35.479Z,53.70
2019-04-16T11:33:02.180Z,53.90
2019-04-16T11:35:28.963Z,51.40
2019-04-16T11:37:55.711Z,50.20
2019-04-16T11:40:22.366Z,51.70
2019-04-16T11:42:49.191Z,51.60
2019-04-16T11:45:16.210Z,51.50
2019-04-16T11:47:42.838Z,52.60
2019-04-16T11:50:09.729Z,52.60
2019-04-16T11:52:39.807Z,51.30
2019-04-16T11:55:03.912Z,52.60
2019-04-16T11:57:33.254Z,53.30
2019-04-16T12:00:06.617Z,52.30
2019-04-16T12:02:26.921Z,52.30
2019-04-16T12:05:12.422Z,51.40
2019-04-16T12:07:53.195Z,51.90
2019-04-16T12:13:13.962Z,51.90
2019-04-16T12:15:42.632Z,51.80
2019-04-16T12:18:24.217Z,52.70
2019-04-16T12:20:56.961Z,52.80
2019-04-16T12:23:40.371Z,51.40
2019-04-16T12:26:25.987Z,51.30
2019-04-16T12:29:08.314Z,53.00
2019-04-16T12:31:48.147Z,53.10
2019-04-16T12:34:15.742Z,51.70
2019-04-16T12:36:57.470Z,51.40
2019-04-16T12:39:30.473Z,52.30
2019-04-16T12:42:02.114Z,51.00
2019-04-16T12:44:45.304Z,50.90
2019-04-16T12:47:17.053Z,50.80
2019-04-16T12:49:47.717Z,51.20
2019-04-16T12:52:17.198Z,49.80
2019-04-16T12:54:41.224Z,51.40
2019-04-16T12:57:15.371Z,50.10
2019-04-16T12:59:40.244Z,50.10
2019-04-16T13:02:13.402Z,50.70
2019-04-16T13:04:40.059Z,51.70
2019-04-16T13:07:24.237Z,51.50
2019-04-16T13:09:56.841Z,51.50
2019-04-16T13:12:24.444Z,50.70
2019-04-16T13:15:00.615Z,51.30
2019-04-16T13:17:21.470Z,51.90
2019-04-16T13:19:50.202Z,51.90
2019-04-16T13:22:16.956Z,53.10
2019-04-16T13:24:43.681Z,52.30
2019-04-16T13:27:18.318Z,52.20
2019-04-16T13:29:45.793Z,52.50
2019-04-16T13:32:12.469Z,52.60
2019-04-16T13:34:39.180Z,53.00
2019-04-16T13:37:05.924Z,51.70
2019-04-16T13:39:32.734Z,52.50
2019-04-16T13:41:59.603Z,52.20
2019-04-16T13:44:29.151Z,51.40
2019-04-16T13:47:01.198Z,52.50
2019-04-16T13:49:24.481Z,52.90
2019-04-16T13:51:50.296Z,52.90
2019-04-16T13:57:17.076Z,50.60
2019-04-16T13:59:49.830Z,51.60
2019-04-16T14:02:18.729Z,52.10
2019-04-16T14:04:44.331Z,52.30
2019-04-16T14:07:11.088Z,52.90
2019-04-16T14:09:37.874Z,52.20
2019-04-16T14:12:04.635Z,52.80
2019-04-16T14:14:31.357Z,53.30
2019-04-16T14:17:08.269Z,54.10
2019-04-16T14:19:25.021Z,53.40
2019-04-16T14:21:52.478Z,51.80
2019-04-16T14:24:20.018Z,52.30
2019-04-16T14:26:47.516Z,52.10
2019-04-16T14:29:14.201Z,52.10
2019-04-16T14:31:41.688Z,53.10
2019-04-16T14:34:15.182Z,51.90
2019-04-16T14:36:41.977Z,51.80
2019-04-16T14:39:23.744Z,52.50
2019-04-16T14:41:50.461Z,52.20
2019-04-16T14:44:17.939Z,51.70
2019-04-16T14:46:44.692Z,51.70
2019-04-16T14:49:11.429Z,52.40
2019-04-16T14:51:38.189Z,53.20
2019-04-16T14:54:08.830Z,52.80
2019-04-16T14:56:35.577Z,53.10
2019-04-16T14:59:04.265Z,52.40
2019-04-16T15:01:34.855Z,52.30
2019-04-16T15:04:02.561Z,52.50
2019-04-16T15:06:30.366Z,52.70
2019-04-16T15:12:01.723Z,52.20
2019-04-16T15:14:28.558Z,51.90
2019-04-16T15:17:00.959Z,52.40
2019-04-16T15:19:28.747Z,52.40
2019-04-16T15:22:01.586Z,52.70
2019-04-16T15:24:29.136Z,52.50
2019-04-16T15:26:58.778Z,53.70
2019-04-16T15:29:28.521Z,53.60
2019-04-16T15:31:56.590Z,54.40
2019-04-16T15:34:23.382Z,53.60
2019-04-16T15:36:53.368Z,53.80
2019-04-16T15:39:17.731Z,53.60
2019-04-16T15:41:45.421Z,53.70
2019-04-16T15:44:27.057Z,54.10
2019-04-16T15:49:55.589Z,55.00
2019-04-16T15:52:24.786Z,54.80
2019-04-16T15:54:57.431Z,54.90
2019-04-16T15:57:30.287Z,55.20
2019-04-16T16:00:03.787Z,54.70
2019-04-16T16:02:36.675Z,54.70
2019-04-16T16:05:03.576Z,54.60
2019-04-16T16:07:30.416Z,54.90
2019-04-16T16:10:13.775Z,55.00
2019-04-16T16:12:39.054Z,54.30
2019-04-16T16:15:08.707Z,54.20
2019-04-16T16:17:32.947Z,54.50
2019-04-16T16:19:59.787Z,55.20
2019-04-16T16:22:26.526Z,55.50
2019-04-16T16:24:53.376Z,54.50
2019-04-16T16:27:20.267Z,55.30
2019-04-16T16:29:47.056Z,55.60
2019-04-16T16:32:14.002Z,56.00
2019-04-16T16:34:40.843Z,57.30
2019-04-16T16:37:07.788Z,56.30
2019-04-16T16:39:34.634Z,56.60
2019-04-16T16:42:01.476Z,56.80
2019-04-16T16:44:28.174Z,57.00
2019-04-16T16:46:58.556Z,57.60
2019-04-16T16:49:24.307Z,57.50
2019-04-16T16:51:51.858Z,57.80
2019-04-16T16:54:21.462Z,57.80
2019-04-16T16:59:40.505Z,58.20
2019-04-16T17:02:11.237Z,58.70
2019-04-16T17:04:38.154Z,59.10
2019-04-16T17:07:05.058Z,60.90
2019-04-16T17:09:31.875Z,60.80
2019-04-16T17:11:58.727Z,61.50
2019-04-16T17:14:25.571Z,62.30
2019-04-16T17:16:52.399Z,61.90
2019-04-16T17:19:19.140Z,62.60
2019-04-16T17:21:45.985Z,62.60
2019-04-16T17:24:12.926Z,63.60
2019-04-16T17:26:39.668Z,64.20
2019-04-16T17:29:06.681Z,65.50
2019-04-16T17:31:35.985Z,65.60
2019-04-16T17:34:01.023Z,67.20
2019-04-16T17:36:27.733Z,67.20
2019-04-16T17:38:54.502Z,69.30
2019-04-16T17:41:27.310Z,67.40
2019-04-16T17:44:03.088Z,71.00
2019-04-16T17:46:32.944Z,72.40
2019-04-16T17:49:05.633Z,74.80
2019-04-16T17:51:38.525Z,80.50
2019-04-16T17:54:22.148Z,88.80
2019-04-16T17:56:56.356Z,90.10
2019-04-16T17:59:29.260Z,95.10
2019-04-16T18:02:01.516Z,99.90
2019-04-16T18:04:44.897Z,99.90
2019-04-16T18:07:14.254Z,99.90
2019-04-16T18:09:43.041Z,99.90
2019-04-16T18:12:24.701Z,99.90
2019-04-16T18:14:56.397Z,99.90
2019-04-16T18:20:27.497Z,99.90
2019-04-16T18:23:11.912Z,99.90
2019-04-16T18:28:38.970Z,99.90
2019-04-16T18:31:11.740Z,99.90
2019-04-16T18:33:38.594Z,99.90
2019-04-16T18:36:08.202Z,99.90
2019-04-16T18:38:44.981Z,99.90
2019-04-16T18:41:14.811Z,99.90
2019-04-16T18:43:57.187Z,99.90
2019-04-16T18:46:26.909Z,99.90
2019-04-16T18:48:57.224Z,99.90
2019-04-16T18:51:24.008Z,99.90
2019-04-16T18:53:50.820Z,99.90
2019-04-16T18:56:17.659Z,99.90
2019-04-16T18:58:44.507Z,99.90
2019-04-16T19:01:12.166Z,99.90
2019-04-16T19:03:39.009Z,99.90
2019-04-16T19:06:05.825Z,99.90
2019-04-16T19:08:41.494Z,99.90
2019-04-16T19:10:59.599Z,99.90
2019-04-16T19:13:26.381Z,99.90
2019-04-16T19:15:53.325Z,99.90
2019-04-16T19:18:20.485Z,99.90
2019-04-16T19:20:51.575Z,99.90
2019-04-16T19:23:13.749Z,99.90
2019-04-16T19:25:40.521Z,99.90
2019-04-16T19:28:07.231Z,99.90
2019-04-16T19:30:33.974Z,99.90
2019-04-16T19:33:01.964Z,99.90
2019-04-16T19:35:27.664Z,99.90
2019-04-16T19:37:54.671Z,99.90
2019-04-16T19:40:21.445Z,99.90
2019-04-16T19:42:48.288Z,99.90
2019-04-16T19:45:15.027Z,99.90
2019-04-16T19:47:41.870Z,99.90
2019-04-16T19:50:08.717Z,99.90
2019-04-16T19:52:35.457Z,99.90
2019-04-16T19:55:02.399Z,99.90
2019-04-16T19:57:29.243Z,99.90
2019-04-16T19:59:56.087Z,99.90
2019-04-16T20:02:22.828Z,99.90
2019-04-16T20:04:50.909Z,99.90
2019-04-16T20:07:16.410Z,99.90
2019-04-16T20:09:43.257Z,99.90
2019-04-16T20:12:09.996Z,99.90
2019-04-16T20:14:36.707Z,99.90
2019-04-16T20:17:03.381Z,99.90
2019-04-16T20:19:30.130Z,99.90
2019-04-16T20:21:56.906Z,99.90
2019-04-16T20:24:23.593Z,99.90
2019-04-16T20:26:50.278Z,99.90
2019-04-16T20:29:16.975Z,99.90
2019-04-16T20:31:43.728Z,99.90
2019-04-16T20:34:12.414Z,99.90
2019-04-16T20:36:37.923Z,99.90
2019-04-16T20:39:04.813Z,99.90
2019-04-16T20:41:31.452Z,99.90
2019-04-16T20:43:58.228Z,99.90
2019-04-16T20:46:25.094Z,99.90
2019-04-16T20:49:06.543Z,99.90
2019-04-16T20:51:18.993Z,99.90
2019-04-16T20:53:46.006Z,99.90
2019-04-16T20:56:13.020Z,99.90
2019-04-16T20:58:40.174Z,99.90
2019-04-16T21:01:07.455Z,99.90
2019-04-16T21:03:34.369Z,99.90
2019-04-16T21:06:07.166Z,99.90
2019-04-16T21:08:29.397Z,99.90
2019-04-16T21:10:58.932Z,99.90
2019-04-16T21:13:23.020Z,99.90
2019-04-16T21:15:49.702Z,99.90
2019-04-16T21:18:17.194Z,99.90
2019-04-16T21:20:44.009Z,99.90
2019-04-16T21:23:11.440Z,99.90
2019-04-16T21:25:38.126Z,99.90
2019-04-16T21:28:10.989Z,99.90
2019-04-16T21:30:42.910Z,99.90
2019-04-16T21:33:07.049Z,99.90
2019-04-16T21:35:36.689Z,99.90
2019-04-16T21:38:19.256Z,99.90
2019-04-16T21:40:46.697Z,99.90
2019-04-16T21:43:14.186Z,99.90
2019-04-16T21:45:40.925Z,99.90
2019-04-16T21:48:07.790Z,99.90
2019-04-16T21:50:34.531Z,99.90
2019-04-16T21:53:01.292Z,99.90
2019-04-16T21:55:28.096Z,99.90
2019-04-16T21:57:54.823Z,99.90
2019-04-16T22:00:24.423Z,99.90
2019-04-16T22:02:51.144Z,99.90
2019-04-16T22:05:18.586Z,99.90
2019-04-16T22:07:45.339Z,99.90
2019-04-16T22:10:12.775Z,99.90
2019-04-16T22:12:39.477Z,99.90
2019-04-16T22:15:06.237Z,99.90
2019-04-16T22:17:35.786Z,99.90
2019-04-16T22:20:03.721Z,99.90
2019-04-16T22:22:28.200Z,99.90
2019-04-16T22:24:55.678Z,99.90
2019-04-16T22:27:21.526Z,99.90
2019-04-16T22:29:48.303Z,99.90
2019-04-16T22:32:15.764Z,99.90
2019-04-16T22:34:42.448Z,99.90
2019-04-16T22:37:10.072Z,99.90
2019-04-16T22:39:40.550Z,99.90
2019-04-16T22:42:17.965Z,99.90
2019-04-16T22:44:51.690Z,99.90
2019-04-16T22:47:20.061Z,99.90
2019-04-16T22:49:46.773Z,99.90
2019-04-16T22:52:14.224Z,99.90
2019-04-16T22:54:41.693Z,99.90
2019-04-16T22:57:08.709Z,99.90
2019-04-16T22:59:39.077Z,99.90
2019-04-16T23:02:02.797Z,99.90
2019-04-16T23:04:29.586Z,99.90
2019-04-16T23:06:56.402Z,99.90
2019-04-16T23:09:23.100Z,99.90
2019-04-16T23:11:52.736Z,99.90
2019-04-16T23:14:16.505Z,99.90
2019-04-16T23:16:43.202Z,99.90
2019-04-16T23:19:09.908Z,99.90
2019-04-16T23:21:36.604Z,99.90
2019-04-16T23:24:03.336Z,99.90
2019-04-16T23:26:33.042Z,99.90
2019-04-16T23:28:57.527Z,99.90
2019-04-16T23:31:24.232Z,99.90
2019-04-16T23:33:51.659Z,99.90
2019-04-16T23:36:18.388Z,99.90
2019-04-16T23:38:45.168Z,99.90
2019-04-16T23:41:16.095Z,99.90
2019-04-16T23:43:44.403Z,99.90
2019-04-16T23:49:09.551Z,99.90
2019-04-16T23:54:40.671Z,99.90
2019-04-16T23:57:08.171Z,99.90
